Time;durP1;ratioP1;P1;durP2;ratioP2;P2;SDS_P1;SDS_P2;PMS_P1;PMS_P2;Temp;Humidity;BMP_temperature;BMP_pressure;BME280_temperature;BME280_humidity;BME280_pressure;Samples;Min_cycle;Max_cycle;Signal;HPM_P1;HPM_P2
2024/04/12 00:01:01;;;;;;;9.70;5.25;;;;;;;;;;5031450;28;20029;-75
2024/04/12 00:03:28;;;;;;;5.28;4.55;;;;;;;;;;5030327;28;20041;-75
2024/04/12 00:06:17;;;;;;;6.07;3.97;;;;;;;;;;5013641;28;20036;-76
2024/04/12 00:08:46;;;;;;;13.07;4.43;;;;;;;;;;5030812;28;20045;-75
2024/04/12 00:11:16;;;;;;;4.60;3.78;;;;;;;;;;5031130;28;20095;-74
2024/04/12 00:13:52;;;;;;;6.93;4.22;;;;;;;;;;5029953;28;20103;-75
2024/04/12 00:16:29;;;;;;;9.50;4.10;;;;;;;;;;5012994;28;20056;-76
2024/04/12 00:19:12;;;;;;;11.05;4.15;;;;;;;;;;5031086;28;20563;-75
2024/04/12 00:21:41;;;;;;;6.47;4.00;;;;;;;;;;5030742;28;20060;-75
2024/04/12 00:24:11;;;;;;;13.60;4.18;;;;;;;;;;5012811;28;20038;-76
2024/04/12 00:26:40;;;;;;;5.07;4.30;;;;;;;;;;5013295;28;20205;-76
2024/04/12 00:29:08;;;;;;;5.82;3.60;;;;;;;;;;5013255;28;20132;-75
2024/04/12 00:31:42;;;;;;;4.45;3.47;;;;;;;;;;5030828;28;20056;-75
2024/04/12 00:34:08;;;;;;;10.57;3.72;;;;;;;;;;5030183;28;20045;-75
2024/04/12 00:36:34;;;;;;;6.63;4.18;;;;;;;;;;5013006;28;20077;-75
2024/04/12 00:39:01;;;;;;;10.63;3.92;;;;;;;;;;5030767;28;20115;-75
2024/04/12 00:41:29;;;;;;;6.43;3.83;;;;;;;;;;5030718;28;20060;-75
2024/04/12 00:43:55;;;;;;;7.10;3.92;;;;;;;;;;5029997;28;20080;-75
2024/04/12 00:46:23;;;;;;;4.45;3.60;;;;;;;;;;5030734;28;20033;-75
2024/04/12 00:48:52;;;;;;;11.75;3.80;;;;;;;;;;5013438;28;20040;-75
2024/04/12 00:51:21;;;;;;;8.00;3.95;;;;;;;;;;5013262;28;20587;-76
2024/04/12 00:53:48;;;;;;;7.63;4.15;;;;;;;;;;5012629;28;20425;-76
2024/04/12 00:56:14;;;;;;;10.45;3.90;;;;;;;;;;5029955;28;20053;-74
2024/04/12 00:58:42;;;;;;;7.55;4.07;;;;;;;;;;5030424;28;20407;-76
2024/04/12 01:01:15;;;;;;;5.78;3.85;;;;;;;;;;5031009;28;20042;-76
2024/04/12 01:03:48;;;;;;;8.35;3.92;;;;;;;;;;5011906;28;20049;-76
2024/04/12 01:06:16;;;;;;;7.82;4.05;;;;;;;;;;5030415;28;20041;-75
2024/04/12 01:08:45;;;;;;;8.48;4.43;;;;;;;;;;5030195;28;20604;-76
2024/04/12 01:11:14;;;;;;;7.78;3.58;;;;;;;;;;5012766;28;20088;-75
2024/04/12 01:13:40;;;;;;;5.10;3.70;;;;;;;;;;4995586;28;20045;-75
2024/04/12 01:16:07;;;;;;;6.63;3.85;;;;;;;;;;5030683;28;20069;-76
2024/04/12 01:18:32;;;;;;;4.53;3.90;;;;;;;;;;5030156;28;20025;-75
2024/04/12 01:21:10;;;;;;;3.85;3.45;;;;;;;;;;5012666;28;20040;-76
2024/04/12 01:23:48;;;;;;;3.80;3.45;;;;;;;;;;5029693;28;20033;-76
2024/04/12 01:26:14;;;;;;;10.38;3.70;;;;;;;;;;5029336;28;20064;-75
2024/04/12 01:28:43;;;;;;;13.73;3.63;;;;;;;;;;5012014;28;20041;-75
2024/04/12 01:31:15;;;;;;;5.93;3.60;;;;;;;;;;5012938;28;20049;-74
2024/04/12 01:33:42;;;;;;;4.60;3.22;;;;;;;;;;5001831;28;20044;-74
2024/04/12 01:36:10;;;;;;;3.55;3.00;;;;;;;;;;5029980;28;20060;-74
2024/04/12 01:38:39;;;;;;;4.88;3.50;;;;;;;;;;5029658;28;20092;-74
2024/04/12 01:41:05;;;;;;;4.30;2.75;;;;;;;;;;5029939;28;20068;-74
2024/04/12 01:43:36;;;;;;;3.70;3.38;;;;;;;;;;5028939;28;20069;-75
2024/04/12 01:46:04;;;;;;;3.22;3.00;;;;;;;;;;5029986;28;20037;-76
2024/04/12 01:48:36;;;;;;;7.65;3.65;;;;;;;;;;5012360;28;20048;-76
2024/04/12 01:51:03;;;;;;;4.93;3.45;;;;;;;;;;5029995;28;20124;-75
2024/04/12 01:53:38;;;;;;;3.60;3.30;;;;;;;;;;5028887;28;20168;-75
2024/04/12 01:56:04;;;;;;;6.78;3.47;;;;;;;;;;5030045;28;20049;-75
2024/04/12 01:58:31;;;;;;;6.97;4.07;;;;;;;;;;5011873;28;20026;-76
2024/04/12 02:00:57;;;;;;;5.22;3.30;;;;;;;;;;5030448;28;20034;-75
2024/04/12 02:03:30;;;;;;;8.10;3.53;;;;;;;;;;5011729;28;20124;-75
2024/04/12 02:05:56;;;;;;;13.50;3.70;;;;;;;;;;5012777;28;20417;-76
2024/04/12 02:08:24;;;;;;;5.22;3.40;;;;;;;;;;5034774;28;20044;-76
2024/04/12 02:10:50;;;;;;;4.18;3.35;;;;;;;;;;5032688;28;20472;-74
2024/04/12 02:13:22;;;;;;;6.90;3.58;;;;;;;;;;5033137;28;20049;-76
2024/04/12 02:15:51;;;;;;;4.97;3.30;;;;;;;;;;5017176;28;20163;-76
2024/04/12 02:18:20;;;;;;;3.38;3.05;;;;;;;;;;5034173;28;20053;-76
2024/04/12 02:20:51;;;;;;;3.58;3.22;;;;;;;;;;5033763;28;20033;-76
2024/04/12 02:23:19;;;;;;;5.18;2.85;;;;;;;;;;5015818;28;20068;-76
2024/04/12 02:25:47;;;;;;;3.20;2.90;;;;;;;;;;5034030;28;20073;-75
2024/04/12 02:28:14;;;;;;;7.53;3.95;;;;;;;;;;5034274;28;20041;-76
2024/04/12 02:30:44;;;;;;;4.60;3.53;;;;;;;;;;5016389;28;20520;-75
2024/04/12 02:33:12;;;;;;;8.15;4.40;;;;;;;;;;5015649;28;20065;-75
2024/04/12 02:35:41;;;;;;;6.95;3.50;;;;;;;;;;5033810;28;20037;-75
2024/04/12 02:38:20;;;;;;;8.13;2.90;;;;;;;;;;5034671;28;20049;-75
2024/04/12 02:40:47;;;;;;;5.45;3.40;;;;;;;;;;5020925;28;20095;-76
2024/04/12 02:43:15;;;;;;;5.65;3.13;;;;;;;;;;5011276;28;20055;-76
2024/04/12 02:45:48;;;;;;;7.10;3.30;;;;;;;;;;5026191;28;20414;-75
2024/04/12 02:48:16;;;;;;;4.18;3.35;;;;;;;;;;5042784;28;20037;-74
2024/04/12 02:50:43;;;;;;;3.83;2.83;;;;;;;;;;5039934;28;20033;-75
2024/04/12 02:53:17;;;;;;;3.08;2.63;;;;;;;;;;5018883;28;20042;-76
2024/04/12 02:56:00;;;;;;;4.47;3.05;;;;;;;;;;5038170;28;20478;-75
2024/04/12 02:58:39;;;;;;;6.22;2.95;;;;;;;;;;5036746;28;20495;-75
2024/04/12 03:01:07;;;;;;;6.13;2.90;;;;;;;;;;5035339;28;20026;-75
2024/04/12 03:03:35;;;;;;;6.85;3.20;;;;;;;;;;5033932;28;20081;-75
2024/04/12 03:06:01;;;;;;;10.00;3.40;;;;;;;;;;5032956;28;20037;-75
2024/04/12 03:08:32;;;;;;;5.72;3.15;;;;;;;;;;5033082;28;20055;-75
2024/04/12 03:11:13;;;;;;;7.30;3.33;;;;;;;;;;5033531;28;20117;-74
2024/04/12 03:13:40;;;;;;;7.30;3.40;;;;;;;;;;5031792;28;20068;-75
2024/04/12 03:16:13;;;;;;;4.35;3.30;;;;;;;;;;5032538;28;20049;-75
2024/04/12 03:18:44;;;;;;;7.90;3.08;;;;;;;;;;5014933;28;20415;-75
2024/04/12 03:21:12;;;;;;;5.90;3.58;;;;;;;;;;5008896;28;20033;-75
2024/04/12 03:23:38;;;;;;;7.53;3.30;;;;;;;;;;5029337;28;20041;-75
2024/04/12 03:26:04;;;;;;;5.60;3.30;;;;;;;;;;5017272;28;20115;-76
2024/04/12 03:28:30;;;;;;;7.63;3.50;;;;;;;;;;5035614;28;20369;-75
2024/04/12 03:30:56;;;;;;;4.05;3.30;;;;;;;;;;5011977;28;20088;-76
2024/04/12 03:33:22;;;;;;;8.55;3.25;;;;;;;;;;5015727;28;20046;-76
2024/04/12 03:35:48;;;;;;;6.35;4.00;;;;;;;;;;5033223;28;20075;-77
2024/04/12 03:38:28;;;;;;;6.72;3.85;;;;;;;;;;5019364;28;20034;-76
2024/04/12 03:41:03;;;;;;;4.57;2.97;;;;;;;;;;5012439;28;20044;-76
2024/04/12 03:43:30;;;;;;;5.47;3.47;;;;;;;;;;5011317;28;20498;-76
2024/04/12 03:45:58;;;;;;;8.30;3.83;;;;;;;;;;5012045;28;20033;-75
2024/04/12 03:48:24;;;;;;;7.25;3.70;;;;;;;;;;5011921;28;20339;-76
2024/04/12 03:50:59;;;;;;;3.83;2.78;;;;;;;;;;5025837;28;20289;-76
2024/04/12 03:53:30;;;;;;;9.63;3.78;;;;;;;;;;5031457;28;20057;-76
2024/04/12 03:55:56;;;;;;;6.63;3.28;;;;;;;;;;5032595;28;20037;-76
2024/04/12 03:58:24;;;;;;;5.97;3.47;;;;;;;;;;5031669;28;20037;-76
2024/04/12 04:00:51;;;;;;;4.47;2.90;;;;;;;;;;4997353;28;20461;-76
2024/04/12 04:03:32;;;;;;;5.13;2.78;;;;;;;;;;5012780;28;20044;-76
2024/04/12 04:06:05;;;;;;;5.90;2.90;;;;;;;;;;5013458;28;20033;-75
2024/04/12 04:08:47;;;;;;;3.55;2.83;;;;;;;;;;5031545;28;20041;-76
2024/04/12 04:11:17;;;;;;;12.80;2.80;;;;;;;;;;5013756;28;20035;-75
2024/04/12 04:13:49;;;;;;;4.65;2.70;;;;;;;;;;5029902;28;20429;-77
2024/04/12 04:16:18;;;;;;;4.70;2.97;;;;;;;;;;5031137;28;20052;-76
2024/04/12 04:18:49;;;;;;;14.43;3.40;;;;;;;;;;5030820;28;20119;-76
2024/04/12 04:21:15;;;;;;;9.73;2.78;;;;;;;;;;5031159;28;20029;-76
2024/04/12 04:23:42;;;;;;;4.75;3.10;;;;;;;;;;5029918;28;20112;-75
2024/04/12 04:26:08;;;;;;;3.38;2.72;;;;;;;;;;5013599;28;20449;-76
2024/04/12 04:28:34;;;;;;;3.20;2.83;;;;;;;;;;5030787;28;20041;-76
2024/04/12 04:31:05;;;;;;;8.95;3.60;;;;;;;;;;5030054;28;20041;-76
2024/04/12 04:33:35;;;;;;;3.08;2.03;;;;;;;;;;5030212;28;20051;-77
2024/04/12 04:36:09;;;;;;;6.72;3.20;;;;;;;;;;5030856;28;20052;-76
2024/04/12 04:38:38;;;;;;;6.95;3.22;;;;;;;;;;4996784;28;20521;-76
2024/04/12 04:41:07;;;;;;;4.90;2.58;;;;;;;;;;4995293;28;20053;-75
2024/04/12 04:43:33;;;;;;;4.85;2.92;;;;;;;;;;5029109;28;20051;-75
2024/04/12 04:46:10;;;;;;;8.38;2.42;;;;;;;;;;5012956;28;20037;-75
2024/04/12 04:48:36;;;;;;;8.10;2.70;;;;;;;;;;5006452;28;20128;-74
2024/04/12 04:51:02;;;;;;;6.00;2.72;;;;;;;;;;5011658;28;20037;-75
2024/04/12 04:53:29;;;;;;;5.30;2.13;;;;;;;;;;4991558;28;20048;-76
2024/04/12 04:56:01;;;;;;;7.90;3.00;;;;;;;;;;5020020;28;20033;-75
2024/04/12 04:58:28;;;;;;;2.60;2.38;;;;;;;;;;5012281;28;20418;-75
2024/04/12 05:00:54;;;;;;;5.50;3.15;;;;;;;;;;5029390;28;20060;-74
2024/04/12 05:03:20;;;;;;;3.00;2.70;;;;;;;;;;5028932;28;20548;-75
2024/04/12 05:05:49;;;;;;;7.22;3.10;;;;;;;;;;5029054;28;20437;-74
2024/04/12 05:08:16;;;;;;;7.30;2.88;;;;;;;;;;5029456;28;20041;-74
2024/04/12 05:10:43;;;;;;;4.72;3.00;;;;;;;;;;5029119;28;20527;-74
2024/04/12 05:13:11;;;;;;;2.47;2.28;;;;;;;;;;5028587;28;20049;-74
2024/04/12 05:18:07;;;;;;;4.53;2.85;;;;;;;;;;5011808;28;20034;-74
2024/04/12 05:20:39;;;;;;;5.07;2.80;;;;;;;;;;5012322;28;20133;-73
2024/04/12 05:23:08;;;;;;;6.88;2.85;;;;;;;;;;5010525;28;20042;-74
2024/04/12 05:25:35;;;;;;;5.97;4.05;;;;;;;;;;4998362;28;20104;-74
2024/04/12 05:28:06;;;;;;;5.20;2.75;;;;;;;;;;5009504;28;20045;-73
2024/04/12 05:30:41;;;;;;;6.68;3.30;;;;;;;;;;5016509;28;20044;-75
2024/04/12 05:33:08;;;;;;;8.68;3.45;;;;;;;;;;5019384;28;20045;-75
2024/04/12 05:35:34;;;;;;;3.75;2.47;;;;;;;;;;5002483;28;20502;-74
2024/04/12 05:38:10;;;;;;;5.90;3.10;;;;;;;;;;5012539;28;20037;-76
2024/04/12 05:40:42;;;;;;;7.07;3.42;;;;;;;;;;5014378;28;20120;-75
2024/04/12 05:43:14;;;;;;;4.65;3.53;;;;;;;;;;5026566;28;20073;-75
2024/04/12 05:45:40;;;;;;;5.80;2.80;;;;;;;;;;5015721;28;20057;-76
2024/04/12 05:48:13;;;;;;;8.60;3.70;;;;;;;;;;5022216;28;20088;-74
2024/04/12 05:50:49;;;;;;;10.00;3.63;;;;;;;;;;5023699;28;20048;-75
2024/04/12 05:53:16;;;;;;;5.22;3.15;;;;;;;;;;5009146;28;20045;-75
2024/04/12 05:55:45;;;;;;;8.02;3.70;;;;;;;;;;5028934;28;20607;-75
2024/04/12 05:58:12;;;;;;;6.13;3.25;;;;;;;;;;5027214;28;20199;-75
2024/04/12 06:00:41;;;;;;;10.65;3.47;;;;;;;;;;5004530;28;20060;-75
2024/04/12 06:03:14;;;;;;;9.23;3.72;;;;;;;;;;5014858;28;20528;-75
2024/04/12 06:05:41;;;;;;;5.18;3.58;;;;;;;;;;5032643;28;20501;-76
2024/04/12 06:10:55;;;;;;;9.57;3.28;;;;;;;;;;5019463;28;20132;-73
2024/04/12 06:13:23;;;;;;;8.15;3.30;;;;;;;;;;5031555;28;20047;-73
2024/04/12 06:15:49;;;;;;;5.57;3.28;;;;;;;;;;5014755;28;20041;-75
2024/04/12 06:18:16;;;;;;;3.70;2.50;;;;;;;;;;5020407;28;20390;-76
2024/04/12 06:20:43;;;;;;;5.28;2.60;;;;;;;;;;5018108;28;20030;-76
2024/04/12 06:23:11;;;;;;;5.63;3.38;;;;;;;;;;5012996;28;20069;-76
2024/04/12 06:25:38;;;;;;;8.02;3.58;;;;;;;;;;5013822;28;20514;-76
2024/04/12 06:28:11;;;;;;;4.65;3.67;;;;;;;;;;4996207;28;20479;-76
2024/04/12 06:30:39;;;;;;;5.32;3.47;;;;;;;;;;4996342;28;20048;-76
2024/04/12 06:33:08;;;;;;;3.25;2.95;;;;;;;;;;5015056;28;20057;-77
2024/04/12 06:35:36;;;;;;;9.70;3.70;;;;;;;;;;5033871;28;20034;-76
2024/04/12 06:38:07;;;;;;;5.82;3.08;;;;;;;;;;5024550;28;20083;-76
2024/04/12 06:40:33;;;;;;;8.60;3.28;;;;;;;;;;5024033;28;20052;-75
2024/04/12 06:43:05;;;;;;;5.43;3.53;;;;;;;;;;5039975;28;20053;-76
2024/04/12 06:45:41;;;;;;;6.32;3.72;;;;;;;;;;5022735;28;20042;-76
2024/04/12 06:48:10;;;;;;;4.88;2.65;;;;;;;;;;5024009;28;20060;-77
2024/04/12 06:50:36;;;;;;;10.73;3.03;;;;;;;;;;5017402;28;20140;-74
2024/04/12 06:53:08;;;;;;;3.80;3.20;;;;;;;;;;5013464;28;20041;-74
2024/04/12 06:55:46;;;;;;;4.93;2.70;;;;;;;;;;5013124;28;20042;-73
2024/04/12 06:58:12;;;;;;;3.90;2.40;;;;;;;;;;4980360;28;20502;-74
2024/04/12 07:00:38;;;;;;;6.28;2.75;;;;;;;;;;5032759;28;20048;-74
2024/04/12 07:03:08;;;;;;;5.68;3.67;;;;;;;;;;5032882;28;20044;-74
2024/04/12 07:05:34;;;;;;;4.03;3.20;;;;;;;;;;5021888;28;20072;-74
2024/04/12 07:08:05;;;;;;;5.05;2.97;;;;;;;;;;5015368;28;20034;-77
2024/04/12 07:10:35;;;;;;;7.28;3.33;;;;;;;;;;5009051;28;20410;-77
2024/04/12 07:13:01;;;;;;;3.92;2.88;;;;;;;;;;5019934;28;20510;-78
2024/04/12 07:15:27;;;;;;;3.83;2.60;;;;;;;;;;5028805;28;20033;-78
2024/04/12 07:17:57;;;;;;;7.32;3.15;;;;;;;;;;5030904;28;20041;-77
2024/04/12 07:20:27;;;;;;;2.75;2.55;;;;;;;;;;5033573;28;20390;-77
2024/04/12 07:22:55;;;;;;;6.00;3.53;;;;;;;;;;5032158;28;20041;-78
2024/04/12 07:25:23;;;;;;;7.68;3.20;;;;;;;;;;5033026;28;20103;-77
2024/04/12 07:27:53;;;;;;;3.85;2.85;;;;;;;;;;5016387;28;20056;-79
2024/04/12 07:30:20;;;;;;;3.40;3.07;;;;;;;;;;5016855;28;20034;-77
2024/04/12 07:32:46;;;;;;;4.05;2.75;;;;;;;;;;5041821;28;20366;-77
2024/04/12 07:35:26;;;;;;;4.97;2.60;;;;;;;;;;5045598;28;20302;-77
2024/04/12 07:37:54;;;;;;;9.55;3.15;;;;;;;;;;5001104;28;20033;-77
2024/04/12 07:40:21;;;;;;;5.65;2.65;;;;;;;;;;5013407;28;20049;-76
2024/04/12 07:42:47;;;;;;;4.78;2.85;;;;;;;;;;5014225;28;20479;-78
2024/04/12 07:45:23;;;;;;;4.45;2.78;;;;;;;;;;5032384;28;20065;-77
2024/04/12 07:47:53;;;;;;;9.32;2.67;;;;;;;;;;5025906;28;20524;-77
2024/04/12 07:50:21;;;;;;;7.13;2.92;;;;;;;;;;5035817;28;20414;-77
2024/04/12 07:52:50;;;;;;;2.85;2.10;;;;;;;;;;5030839;28;20464;-77
2024/04/12 07:55:24;;;;;;;2.25;2.05;;;;;;;;;;5002259;28;20045;-78
2024/04/12 16:56:24;;;;;;;3.60;2.08;;;;;;;;;;3298005;26;20049;-79
2024/04/12 16:58:59;;;;;;;3.53;1.80;;;;;;;;;;4961322;28;20034;-78
2024/04/12 17:01:28;;;;;;;1.70;1.60;;;;;;;;;;5005955;28;20566;-80
2024/04/12 17:03:54;;;;;;;1.98;1.80;;;;;;;;;;4994379;28;20041;-80
2024/04/12 17:06:20;;;;;;;2.20;2.08;;;;;;;;;;4985477;28;20149;-83
2024/04/12 17:08:50;;;;;;;4.93;4.45;;;;;;;;;;5007353;28;20065;-82
2024/04/12 17:11:16;;;;;;;3.58;2.45;;;;;;;;;;4984381;28;20451;-82
2024/04/12 17:13:43;;;;;;;6.35;3.95;;;;;;;;;;5008891;28;20034;-81
2024/04/12 17:16:09;;;;;;;2.83;2.42;;;;;;;;;;5011226;28;20056;-82
2024/04/12 17:18:35;;;;;;;2.72;2.30;;;;;;;;;;4989131;28;20089;-81
2024/04/12 17:21:03;;;;;;;3.20;2.70;;;;;;;;;;4992910;28;20029;-83
2024/04/12 17:23:29;;;;;;;3.30;3.00;;;;;;;;;;4986108;28;20049;-82
2024/04/12 17:25:55;;;;;;;5.30;2.78;;;;;;;;;;4998664;28;20041;-82
2024/04/12 17:28:21;;;;;;;2.97;2.78;;;;;;;;;;5009140;28;20038;-80
2024/04/12 17:30:57;;;;;;;5.18;2.78;;;;;;;;;;5029175;28;20078;-83
2024/04/12 17:33:27;;;;;;;3.15;2.50;;;;;;;;;;5008317;28;20042;-82
2024/04/12 17:35:54;;;;;;;3.40;2.53;;;;;;;;;;5009924;28;20601;-83
2024/04/12 17:38:20;;;;;;;2.90;2.58;;;;;;;;;;5013732;28;20034;-81
2024/04/12 17:40:49;;;;;;;3.17;2.88;;;;;;;;;;4978071;28;20037;-79
2024/04/12 17:43:18;;;;;;;3.30;3.00;;;;;;;;;;4977542;28;20041;-79
2024/04/12 17:45:44;;;;;;;2.80;2.60;;;;;;;;;;4991953;28;20038;-79
2024/04/12 17:48:10;;;;;;;4.45;2.72;;;;;;;;;;5013551;28;20092;-79
2024/04/12 17:50:36;;;;;;;3.22;2.38;;;;;;;;;;5000530;28;20069;-81
2024/04/12 17:53:02;;;;;;;1.77;1.45;;;;;;;;;;5004508;28;20053;-81
2024/04/12 17:55:27;;;;;;;2.70;2.50;;;;;;;;;;5009810;28;20049;-83
2024/04/12 17:57:54;;;;;;;2.95;2.10;;;;;;;;;;5007032;28;20076;-82
2024/04/12 18:00:21;;;;;;;3.30;1.95;;;;;;;;;;5019231;28;20041;-80
2024/04/12 18:02:54;;;;;;;1.98;1.83;;;;;;;;;;5000370;28;20041;-77
2024/04/12 18:05:20;;;;;;;2.30;2.10;;;;;;;;;;5004738;28;20064;-80
2024/04/12 18:07:46;;;;;;;2.83;2.55;;;;;;;;;;5013662;28;20403;-80
2024/04/12 18:10:22;;;;;;;3.03;2.75;;;;;;;;;;5039322;28;20030;-84
2024/04/12 18:12:51;;;;;;;3.50;3.20;;;;;;;;;;5015099;28;20034;-81
2024/04/12 18:15:18;;;;;;;5.40;4.20;;;;;;;;;;4996845;28;20121;-84
2024/04/12 18:17:44;;;;;;;4.82;2.38;;;;;;;;;;5010355;28;20459;-82
2024/04/12 18:20:10;;;;;;;2.13;2.00;;;;;;;;;;5010986;28;20046;-85
2024/04/12 18:22:36;;;;;;;1.10;1.10;;;;;;;;;;5023712;28;20045;-82
2024/04/12 18:25:07;;;;;;;1.70;1.63;;;;;;;;;;5001104;28;20506;-80
2024/04/12 18:27:33;;;;;;;3.55;3.15;;;;;;;;;;5032342;28;20528;-89
2024/04/12 18:30:00;;;;;;;1.60;1.50;;;;;;;;;;5026771;28;20026;-85
2024/04/12 18:32:26;;;;;;;2.75;1.85;;;;;;;;;;5032972;28;20044;-86
2024/04/12 18:34:53;;;;;;;1.70;1.60;;;;;;;;;;5007696;28;20093;-86
2024/04/12 18:45:35;;;;;;;1.40;1.33;;;;;;;;;;5033197;28;20041;-82
2024/04/12 18:48:01;;;;;;;2.67;1.58;;;;;;;;;;5042599;23;20050;-86
2024/04/12 18:50:27;;;;;;;1.30;1.20;;;;;;;;;;5030397;28;20090;-84
2024/04/12 18:53:12;;;;;;;5.28;2.40;;;;;;;;;;5031059;28;20021;-85
2024/04/12 18:55:37;;;;;;;2.10;2.00;;;;;;;;;;5031408;28;20045;-86
2024/04/12 18:58:14;;;;;;;2.13;2.00;;;;;;;;;;5018389;28;20030;-82
2024/04/12 19:00:47;;;;;;;2.10;2.00;;;;;;;;;;4997131;28;20038;-82
2024/04/12 19:06:04;;;;;;;3.17;2.10;;;;;;;;;;5130934;23;20062;-85
2024/04/12 19:08:30;;;;;;;1.95;1.70;;;;;;;;;;5015130;28;20045;-85
2024/04/12 19:10:56;;;;;;;4.53;2.03;;;;;;;;;;5761788;22;20318;-85
2024/04/12 19:13:23;;;;;;;3.63;1.90;;;;;;;;;;5014869;28;20317;-85
2024/04/12 19:15:49;;;;;;;4.97;2.00;;;;;;;;;;5045591;28;20046;-81
2024/04/12 19:18:15;;;;;;;2.35;2.10;;;;;;;;;;5016554;28;20041;-85
2024/04/12 19:20:41;;;;;;;2.20;2.10;;;;;;;;;;4996472;28;20030;-81
2024/04/12 19:23:06;;;;;;;1.98;1.88;;;;;;;;;;5036102;28;20009;-84
2024/04/12 19:25:32;;;;;;;1.85;1.75;;;;;;;;;;5029603;28;20031;-83
2024/04/12 19:27:58;;;;;;;1.65;1.55;;;;;;;;;;5026890;28;20039;-87
2024/04/12 19:30:24;;;;;;;2.60;2.40;;;;;;;;;;5129305;23;20486;-80
2024/04/12 19:32:50;;;;;;;5.00;2.13;;;;;;;;;;5018508;28;20033;-81
2024/04/12 19:35:19;;;;;;;2.95;2.08;;;;;;;;;;5017806;28;20038;-83
2024/04/12 19:37:47;;;;;;;1.83;1.73;;;;;;;;;;5026861;28;20513;-81
2024/04/12 19:40:19;;;;;;;1.80;1.70;;;;;;;;;;5021150;28;20030;-82
2024/04/12 19:42:45;;;;;;;1.70;1.60;;;;;;;;;;5021609;28;20038;-80
2024/04/12 19:45:11;;;;;;;2.00;1.90;;;;;;;;;;5017702;28;20057;-83
2024/04/12 19:47:37;;;;;;;3.50;2.00;;;;;;;;;;5015728;28;20466;-82
2024/04/12 19:50:03;;;;;;;7.45;2.58;;;;;;;;;;5017524;28;20037;-80
2024/04/12 19:52:29;;;;;;;6.07;2.10;;;;;;;;;;5012710;28;20115;-76
2024/04/12 19:54:55;;;;;;;2.40;2.20;;;;;;;;;;5013658;28;20041;-76
2024/04/12 19:57:21;;;;;;;2.05;1.60;;;;;;;;;;5027087;28;20052;-77
2024/04/12 19:59:47;;;;;;;1.70;1.35;;;;;;;;;;5023914;28;20025;-76
2024/04/12 20:02:13;;;;;;;1.73;1.63;;;;;;;;;;5006840;28;20053;-76
2024/04/12 20:04:40;;;;;;;1.30;1.30;;;;;;;;;;5019553;28;20025;-77
2024/04/12 20:07:09;;;;;;;1.67;1.50;;;;;;;;;;5016423;28;20037;-76
2024/04/12 20:09:38;;;;;;;1.83;1.42;;;;;;;;;;5014487;28;20112;-76
2024/04/12 20:12:04;;;;;;;1.67;1.58;;;;;;;;;;5011728;28;20044;-75
2024/04/12 20:14:29;;;;;;;1.50;1.35;;;;;;;;;;5010245;28;20034;-78
2024/04/12 20:16:55;;;;;;;1.63;1.52;;;;;;;;;;5011248;28;20045;-78
2024/04/12 20:19:21;;;;;;;4.40;1.90;;;;;;;;;;5008243;28;20040;-77
2024/04/12 20:21:49;;;;;;;1.50;1.40;;;;;;;;;;4985983;28;20038;-83
2024/04/12 20:24:15;;;;;;;1.73;1.63;;;;;;;;;;5025578;28;20034;-82
2024/04/12 20:26:46;;;;;;;2.42;1.52;;;;;;;;;;5013014;28;20030;-77
2024/04/12 20:29:16;;;;;;;1.50;1.40;;;;;;;;;;5009968;28;20029;-76
2024/04/12 20:31:52;;;;;;;1.30;1.20;;;;;;;;;;5011722;28;20041;-76
2024/04/12 20:34:43;;;;;;;1.40;1.30;;;;;;;;;;5010861;28;20128;-77
2024/04/12 20:37:11;;;;;;;1.13;1.02;;;;;;;;;;5012460;28;20525;-79
2024/04/12 20:39:38;;;;;;;1.80;1.70;;;;;;;;;;4996261;28;20490;-77
2024/04/12 20:42:04;;;;;;;1.70;1.60;;;;;;;;;;5011318;28;20103;-77
2024/04/12 20:44:31;;;;;;;2.00;1.80;;;;;;;;;;5009620;28;20111;-77
2024/04/12 20:46:58;;;;;;;1.55;1.52;;;;;;;;;;5011590;28;20175;-77
2024/04/12 20:49:24;;;;;;;1.85;1.70;;;;;;;;;;4992526;28;20045;-78
2024/04/12 20:51:53;;;;;;;2.15;1.55;;;;;;;;;;4992873;28;20030;-77
2024/04/12 20:54:19;;;;;;;3.25;1.42;;;;;;;;;;5009319;28;20048;-78
2024/04/12 20:56:48;;;;;;;1.20;1.20;;;;;;;;;;5009281;28;20038;-76
2024/04/12 20:59:14;;;;;;;1.08;1.08;;;;;;;;;;5010940;28;20026;-77
2024/04/12 21:01:40;;;;;;;0.88;0.88;;;;;;;;;;5009853;28;20052;-78
2024/04/12 21:04:06;;;;;;;1.55;1.30;;;;;;;;;;5007445;28;20396;-78
2024/04/12 21:06:32;;;;;;;1.13;1.13;;;;;;;;;;5009651;28;20061;-78
2024/04/12 21:08:58;;;;;;;1.10;1.10;;;;;;;;;;5009771;28;20061;-77
2024/04/12 21:11:24;;;;;;;1.20;1.20;;;;;;;;;;5010798;28;20034;-77
2024/04/12 21:13:50;;;;;;;0.60;0.60;;;;;;;;;;4992473;28;20045;-78
2024/04/12 21:16:16;;;;;;;2.25;0.90;;;;;;;;;;4988535;28;20050;-78
2024/04/12 21:18:42;;;;;;;0.77;0.77;;;;;;;;;;5011339;28;20033;-77
2024/04/12 21:21:11;;;;;;;1.42;1.25;;;;;;;;;;5009476;28;20060;-79
2024/04/12 21:23:37;;;;;;;1.38;1.38;;;;;;;;;;4991741;28;20030;-78
2024/04/12 21:26:25;;;;;;;1.00;1.00;;;;;;;;;;5013470;28;20099;-77
2024/04/12 21:28:51;;;;;;;0.80;0.80;;;;;;;;;;5010955;28;20030;-78
2024/04/12 21:31:17;;;;;;;3.40;0.90;;;;;;;;;;5008771;28;20161;-78
2024/04/12 21:33:46;;;;;;;0.90;0.90;;;;;;;;;;5007920;28;20046;-78
2024/04/12 21:36:12;;;;;;;0.70;0.70;;;;;;;;;;5008504;28;20104;-80
2024/04/12 21:38:39;;;;;;;2.00;1.25;;;;;;;;;;5008622;28;20139;-79
2024/04/12 21:41:08;;;;;;;1.30;1.00;;;;;;;;;;5007747;28;20030;-78
2024/04/12 21:43:34;;;;;;;0.90;0.90;;;;;;;;;;5007988;28;20502;-78
2024/04/12 21:46:04;;;;;;;4.60;1.05;;;;;;;;;;5008791;28;20030;-79
2024/04/12 21:48:30;;;;;;;0.90;0.90;;;;;;;;;;5009162;28;20030;-78
2024/04/12 21:50:59;;;;;;;1.20;1.10;;;;;;;;;;5007171;28;20403;-77
2024/04/12 21:53:25;;;;;;;1.08;1.00;;;;;;;;;;5006661;28;20168;-77
2024/04/12 21:55:51;;;;;;;1.10;1.00;;;;;;;;;;5008239;28;20040;-77
2024/04/12 21:58:17;;;;;;;0.73;0.73;;;;;;;;;;5007057;28;20517;-77
2024/04/12 22:00:43;;;;;;;1.20;1.10;;;;;;;;;;5009710;28;20030;-76
2024/04/12 22:03:09;;;;;;;0.82;0.82;;;;;;;;;;5005888;28;20054;-80
2024/04/12 22:05:35;;;;;;;1.33;1.00;;;;;;;;;;5010856;28;20048;-78
2024/04/12 22:08:01;;;;;;;1.50;1.40;;;;;;;;;;5008185;28;20040;-77
2024/04/12 22:10:28;;;;;;;1.63;1.17;;;;;;;;;;5011090;28;20034;-78
2024/04/12 22:12:54;;;;;;;0.90;0.90;;;;;;;;;;5012364;28;20560;-79
2024/04/12 22:15:20;;;;;;;1.23;1.17;;;;;;;;;;5010075;28;20034;-79
2024/04/12 22:17:45;;;;;;;1.30;1.17;;;;;;;;;;5010470;28;20073;-79
2024/04/12 22:20:11;;;;;;;1.38;1.30;;;;;;;;;;4992632;28;20050;-79
2024/04/12 22:22:37;;;;;;;1.67;1.52;;;;;;;;;;5011363;28;20254;-79
2024/04/12 22:25:04;;;;;;;9.30;1.27;;;;;;;;;;5000808;28;20038;-78
2024/04/12 22:27:32;;;;;;;2.22;1.60;;;;;;;;;;5011857;28;20049;-78
2024/04/12 22:29:58;;;;;;;4.05;2.20;;;;;;;;;;4995393;28;20042;-79
2024/04/12 22:32:25;;;;;;;1.63;1.52;;;;;;;;;;5012688;28;20062;-77
2024/04/12 22:34:51;;;;;;;2.25;1.83;;;;;;;;;;5010048;28;20465;-78
2024/04/12 22:37:18;;;;;;;1.50;1.40;;;;;;;;;;5011359;28;20062;-78
2024/04/12 22:39:44;;;;;;;1.40;1.30;;;;;;;;;;5010943;28;20091;-77
2024/04/12 22:42:10;;;;;;;1.20;1.20;;;;;;;;;;5012351;28;20105;-78
2024/04/12 22:44:36;;;;;;;2.17;1.52;;;;;;;;;;5002993;28;20046;-78
2024/04/12 22:47:03;;;;;;;1.42;1.33;;;;;;;;;;5011816;28;20034;-78
2024/04/12 22:49:34;;;;;;;1.30;0.90;;;;;;;;;;5011808;28;20507;-78
2024/04/12 22:52:00;;;;;;;2.60;1.30;;;;;;;;;;5010960;28;20032;-79
2024/04/12 22:54:26;;;;;;;1.50;1.40;;;;;;;;;;5011186;28;20046;-78
2024/04/12 22:56:52;;;;;;;1.40;1.30;;;;;;;;;;5012427;28;20045;-79
2024/04/12 22:59:19;;;;;;;1.40;1.30;;;;;;;;;;5011988;28;20029;-78
2024/04/12 23:01:45;;;;;;;1.20;1.20;;;;;;;;;;5007971;28;20054;-78
2024/04/12 23:04:12;;;;;;;1.48;1.40;;;;;;;;;;5011620;28;20038;-78
2024/04/12 23:06:40;;;;;;;1.50;1.40;;;;;;;;;;5015541;28;20033;-79
2024/04/12 23:09:06;;;;;;;1.45;1.35;;;;;;;;;;4999218;28;20260;-78
2024/04/12 23:11:33;;;;;;;1.50;1.40;;;;;;;;;;5012248;28;20030;-77
2024/04/12 23:13:59;;;;;;;1.60;1.50;;;;;;;;;;5011357;28;20046;-78
2024/04/12 23:16:26;;;;;;;1.50;1.40;;;;;;;;;;5012429;28;20041;-77
2024/04/12 23:18:52;;;;;;;1.73;1.63;;;;;;;;;;5013981;28;20120;-77
2024/04/12 23:21:19;;;;;;;1.35;1.25;;;;;;;;;;5011424;28;20120;-78
2024/04/12 23:23:46;;;;;;;1.50;1.40;;;;;;;;;;5009099;28;20770;-78
2024/04/12 23:26:12;;;;;;;1.20;1.20;;;;;;;;;;5009972;28;20030;-77
2024/04/12 23:28:38;;;;;;;1.60;1.50;;;;;;;;;;5010809;28;20033;-79
2024/04/12 23:31:04;;;;;;;0.98;0.98;;;;;;;;;;5011426;28;20473;-77
2024/04/12 23:33:31;;;;;;;1.30;1.30;;;;;;;;;;5010847;28;20046;-77
2024/04/12 23:35:57;;;;;;;1.70;1.60;;;;;;;;;;5009781;28;20581;-79
2024/04/12 23:38:23;;;;;;;3.55;1.42;;;;;;;;;;5010823;28;20072;-76
2024/04/12 23:40:49;;;;;;;1.70;1.60;;;;;;;;;;5012360;28;20037;-79
2024/04/12 23:43:17;;;;;;;1.30;1.20;;;;;;;;;;5009779;28;20041;-79
2024/04/12 23:45:43;;;;;;;1.85;1.48;;;;;;;;;;5011657;28;20041;-76
2024/04/12 23:48:09;;;;;;;1.27;1.17;;;;;;;;;;5010493;28;20149;-78
2024/04/12 23:50:35;;;;;;;1.10;1.10;;;;;;;;;;5001568;28;20061;-77
2024/04/12 23:53:01;;;;;;;1.05;1.05;;;;;;;;;;5010774;28;20033;-78
2024/04/12 23:55:28;;;;;;;1.00;1.00;;;;;;;;;;5011575;28;20565;-78
2024/04/12 23:57:54;;;;;;;1.17;1.08;;;;;;;;;;5011894;28;20041;-79
